Terminal Aerodrome Forecast
Issued by NWS Albany, NY

Home | Current Version | Previous Version | Text Only | Print | Product List | Glossary On
Versions: 1 2 3 4 5 6 7 8 9 10 11 12 13 14 15 16 17 18 19 20 21 22
000
FTUS41 KALY 080542
TAFALB
TAF
KALB 080542Z 0806/0906 35004KT P6SM BKN250
     FM080900 01004KT P6SM SCT100 OVC250
     FM081500 03008KT P6SM SCT050 OVC100
     FM081900 04009KT 6SM -SN OVC050
     FM082200 02007KT 3SM -SN BKN025 OVC035
     FM090000 VRB03KT 1 1/2SM -SN OVC015=

USA.gov is the U.S. government's official web portal to all federal, state and local government web resources and services.